sensor_id;sensor_type;location;lat;lon;timestamp;pressure;altitude;pressure_sealevel;temperature;humidity
75008;BME280;63554;48.940;12.050;2023-04-03T00:01:29;98064.94;;;2.11;73.80
75008;BME280;63554;48.940;12.050;2023-04-03T00:05:32;98063.41;;;2.08;73.75
75008;BME280;63554;48.940;12.050;2023-04-03T00:09:36;98052.03;;;2.06;74.37
75008;BME280;63554;48.940;12.050;2023-04-03T00:13:39;98065.38;;;2.06;74.29
75008;BME280;63554;48.940;12.050;2023-04-03T00:17:42;98069.34;;;2.02;73.86
75008;BME280;63554;48.940;12.050;2023-04-03T00:21:45;98065.97;;;2.00;73.96
75008;BME280;63554;48.940;12.050;2023-04-03T00:25:49;98066.66;;;2.02;74.25
75008;BME280;63554;48.940;12.050;2023-04-03T00:29:52;98066.06;;;2.08;74.43
75008;BME280;63554;48.940;12.050;2023-04-03T00:33:54;98067.66;;;2.01;73.58
75008;BME280;63554;48.940;12.050;2023-04-03T00:37:57;98063.59;;;1.97;74.25
75008;BME280;63554;48.940;12.050;2023-04-03T00:42:01;98068.78;;;1.98;75.00
75008;BME280;63554;48.940;12.050;2023-04-03T00:46:04;98071.59;;;1.97;74.31
75008;BME280;63554;48.940;12.050;2023-04-03T00:50:08;98073.03;;;1.91;74.64
75008;BME280;63554;48.940;12.050;2023-04-03T00:54:11;98066.16;;;1.89;74.02
75008;BME280;63554;48.940;12.050;2023-04-03T00:58:17;98066.16;;;1.89;74.66
75008;BME280;63554;48.940;12.050;2023-04-03T01:02:22;98064.63;;;1.86;74.19
75008;BME280;63554;48.940;12.050;2023-04-03T01:06:26;98057.75;;;1.84;74.51
75008;BME280;63554;48.940;12.050;2023-04-03T01:10:29;98055.34;;;1.90;74.51
75008;BME280;63554;48.940;12.050;2023-04-03T01:14:33;98060.50;;;1.92;74.62
75008;BME280;63554;48.940;12.050;2023-04-03T01:18:38;98057.84;;;1.92;74.43
75008;BME280;63554;48.940;12.050;2023-04-03T01:22:47;98067.41;;;1.94;74.59
75008;BME280;63554;48.940;12.050;2023-04-03T01:26:57;98063.59;;;1.97;75.15
75008;BME280;63554;48.940;12.050;2023-04-03T01:31:07;98076.94;;;1.97;74.08
75008;BME280;63554;48.940;12.050;2023-04-03T01:35:13;98068.84;;;1.89;75.60
75008;BME280;63554;48.940;12.050;2023-04-03T01:39:16;98075.47;;;1.85;74.49
75008;BME280;63554;48.940;12.050;2023-04-03T01:43:19;98073.88;;;1.92;75.07
75008;BME280;63554;48.940;12.050;2023-04-03T01:47:22;98069.81;;;1.88;74.84
75008;BME280;63554;48.940;12.050;2023-04-03T01:51:26;98078.97;;;1.85;74.51
75008;BME280;63554;48.940;12.050;2023-04-03T01:55:29;98077.97;;;1.86;74.44
75008;BME280;63554;48.940;12.050;2023-04-03T01:59:31;98080.66;;;1.86;74.58
75008;BME280;63554;48.940;12.050;2023-04-03T02:03:34;98086.28;;;1.83;74.31
75008;BME280;63554;48.940;12.050;2023-04-03T02:07:38;98083.31;;;1.86;75.22
75008;BME280;63554;48.940;12.050;2023-04-03T02:11:45;98092.84;;;1.89;75.30
75008;BME280;63554;48.940;12.050;2023-04-03T02:15:48;98081.63;;;1.85;74.90
75008;BME280;63554;48.940;12.050;2023-04-03T02:19:50;98096.25;;;1.81;75.48
75008;BME280;63554;48.940;12.050;2023-04-03T02:23:55;98087.97;;;1.74;74.96
75008;BME280;63554;48.940;12.050;2023-04-03T02:27:57;98093.88;;;1.78;76.26
75008;BME280;63554;48.940;12.050;2023-04-03T02:32:00;98086.94;;;1.95;76.59
75008;BME280;63554;48.940;12.050;2023-04-03T02:36:05;98087.22;;;1.92;75.85
75008;BME280;63554;48.940;12.050;2023-04-03T02:40:10;98082.47;;;1.86;75.74
75008;BME280;63554;48.940;12.050;2023-04-03T02:44:13;98078.72;;;1.78;76.56
75008;BME280;63554;48.940;12.050;2023-04-03T02:48:16;98082.63;;;1.74;76.72
75008;BME280;63554;48.940;12.050;2023-04-03T02:52:19;98078.53;;;1.80;76.41
75008;BME280;63554;48.940;12.050;2023-04-03T02:56:23;98081.53;;;1.77;76.94
75008;BME280;63554;48.940;12.050;2023-04-03T03:00:26;98079.28;;;1.72;76.17
75008;BME280;63554;48.940;12.050;2023-04-03T03:04:28;98089.53;;;1.77;76.48
75008;BME280;63554;48.940;12.050;2023-04-03T03:08:32;98084.78;;;1.71;76.55
75008;BME280;63554;48.940;12.050;2023-04-03T03:12:36;98083.38;;;1.67;76.75
75008;BME280;63554;48.940;12.050;2023-04-03T03:16:38;98085.19;;;1.66;76.67
75008;BME280;63554;48.940;12.050;2023-04-03T03:20:41;98090.38;;;1.68;76.73
75008;BME280;63554;48.940;12.050;2023-04-03T03:24:44;98088.16;;;1.63;76.88
75008;BME280;63554;48.940;12.050;2023-04-03T03:28:51;98087.16;;;1.64;76.69
75008;BME280;63554;48.940;12.050;2023-04-03T03:32:55;98082.13;;;1.61;76.75
75008;BME280;63554;48.940;12.050;2023-04-03T03:36:57;98088.16;;;1.63;76.99
75008;BME280;63554;48.940;12.050;2023-04-03T03:41:00;98078.78;;;1.59;76.78
75008;BME280;63554;48.940;12.050;2023-04-03T03:45:06;98083.09;;;1.60;76.38
75008;BME280;63554;48.940;12.050;2023-04-03T03:49:09;98079.59;;;1.60;76.78
75008;BME280;63554;48.940;12.050;2023-04-03T03:53:12;98086.09;;;1.57;76.74
75008;BME280;63554;48.940;12.050;2023-04-03T03:57:16;98082.16;;;1.51;77.08
75008;BME280;63554;48.940;12.050;2023-04-03T04:01:20;98086.50;;;1.52;77.14
75008;BME280;63554;48.940;12.050;2023-04-03T04:05:23;98091.44;;;1.47;77.06
75008;BME280;63554;48.940;12.050;2023-04-03T04:09:26;98089.75;;;1.46;77.49
75008;BME280;63554;48.940;12.050;2023-04-03T04:13:29;98089.06;;;1.44;77.31
75008;BME280;63554;48.940;12.050;2023-04-03T04:17:34;98093.69;;;1.42;77.24
75008;BME280;63554;48.940;12.050;2023-04-03T04:21:37;98100.41;;;1.46;77.59
75008;BME280;63554;48.940;12.050;2023-04-03T04:25:40;98105.59;;;1.48;77.55
75008;BME280;63554;48.940;12.050;2023-04-03T04:29:43;98101.25;;;1.47;77.50
75008;BME280;63554;48.940;12.050;2023-04-03T04:33:47;98092.00;;;1.41;77.09
75008;BME280;63554;48.940;12.050;2023-04-03T04:37:50;98099.44;;;1.47;78.65
75008;BME280;63554;48.940;12.050;2023-04-03T04:41:52;98102.13;;;1.47;77.31
75008;BME280;63554;48.940;12.050;2023-04-03T04:46:03;98100.13;;;1.59;82.45
75008;BME280;63554;48.940;12.050;2023-04-03T04:50:08;98108.41;;;1.56;77.47
75008;BME280;63554;48.940;12.050;2023-04-03T04:54:11;98104.34;;;1.52;77.21
75008;BME280;63554;48.940;12.050;2023-04-03T04:58:16;98101.13;;;1.48;77.13
75008;BME280;63554;48.940;12.050;2023-04-03T05:02:19;98103.22;;;1.45;77.49
75008;BME280;63554;48.940;12.050;2023-04-03T05:06:23;98106.06;;;1.43;77.54
75008;BME280;63554;48.940;12.050;2023-04-03T05:10:25;98107.97;;;1.51;79.27
75008;BME280;63554;48.940;12.050;2023-04-03T05:14:28;98111.22;;;1.45;77.85
75008;BME280;63554;48.940;12.050;2023-04-03T05:18:31;98115.16;;;1.41;77.56
75008;BME280;63554;48.940;12.050;2023-04-03T05:22:35;98115.16;;;1.41;77.86
75008;BME280;63554;48.940;12.050;2023-04-03T05:26:38;98114.06;;;1.43;77.58
75008;BME280;63554;48.940;12.050;2023-04-03T05:30:41;98115.59;;;1.46;77.35
75008;BME280;63554;48.940;12.050;2023-04-03T05:34:43;98114.75;;;1.45;77.57
75008;BME280;63554;48.940;12.050;2023-04-03T05:38:48;98116.56;;;1.45;78.30
75008;BME280;63554;48.940;12.050;2023-04-03T05:42:51;98124.28;;;1.48;77.46
75008;BME280;63554;48.940;12.050;2023-04-03T05:46:55;98120.91;;;1.55;77.42
75008;BME280;63554;48.940;12.050;2023-04-03T05:50:58;98121.72;;;1.56;77.39
75008;BME280;63554;48.940;12.050;2023-04-03T05:55:03;98114.72;;;1.55;77.23
75008;BME280;63554;48.940;12.050;2023-04-03T05:59:06;98116.66;;;1.63;77.15
75008;BME280;63554;48.940;12.050;2023-04-03T06:03:10;98130.13;;;1.71;77.22
75008;BME280;63554;48.940;12.050;2023-04-03T06:07:15;98129.00;;;1.73;77.48
75008;BME280;63554;48.940;12.050;2023-04-03T06:11:19;98123.66;;;1.73;77.22
75008;BME280;63554;48.940;12.050;2023-04-03T06:15:23;98123.91;;;1.80;76.93
75008;BME280;63554;48.940;12.050;2023-04-03T06:19:26;98127.25;;;1.92;77.62
75008;BME280;63554;48.940;12.050;2023-04-03T06:23:28;98131.16;;;1.97;76.32
75008;BME280;63554;48.940;12.050;2023-04-03T06:27:33;98132.41;;;2.03;76.22
75008;BME280;63554;48.940;12.050;2023-04-03T06:31:35;98136.19;;;2.10;75.90
75008;BME280;63554;48.940;12.050;2023-04-03T06:35:39;98133.50;;;2.10;76.71
75008;BME280;63554;48.940;12.050;2023-04-03T06:39:42;98136.97;;;2.21;76.07
75008;BME280;63554;48.940;12.050;2023-04-03T06:43:46;98143.41;;;2.28;75.32
75008;BME280;63554;48.940;12.050;2023-04-03T06:47:49;98139.88;;;2.27;75.42
75008;BME280;63554;48.940;12.050;2023-04-03T06:51:52;98150.38;;;2.38;75.03
75008;BME280;63554;48.940;12.050;2023-04-03T06:55:55;98153.00;;;2.48;74.54
75008;BME280;63554;48.940;12.050;2023-04-03T06:59:59;98156.84;;;2.64;74.84
75008;BME280;63554;48.940;12.050;2023-04-03T07:04:01;98149.06;;;2.70;73.42
75008;BME280;63554;48.940;12.050;2023-04-03T07:08:05;98167.97;;;2.69;73.85
75008;BME280;63554;48.940;12.050;2023-04-03T07:12:08;98173.38;;;2.77;73.06
75008;BME280;63554;48.940;12.050;2023-04-03T07:16:12;98168.94;;;2.68;72.64
75008;BME280;63554;48.940;12.050;2023-04-03T07:20:15;98172.84;;;2.73;72.53
75008;BME280;63554;48.940;12.050;2023-04-03T07:24:18;98172.31;;;2.88;72.53
75008;BME280;63554;48.940;12.050;2023-04-03T07:28:22;98174.50;;;3.02;72.49
75008;BME280;63554;48.940;12.050;2023-04-03T07:32:27;98183.91;;;3.24;70.47
75008;BME280;63554;48.940;12.050;2023-04-03T07:36:30;98185.97;;;3.12;69.33
75008;BME280;63554;48.940;12.050;2023-04-03T07:40:35;98186.19;;;3.19;69.51
75008;BME280;63554;48.940;12.050;2023-04-03T07:44:38;98192.59;;;3.26;69.43
75008;BME280;63554;48.940;12.050;2023-04-03T07:48:43;98198.50;;;3.30;67.83
75008;BME280;63554;48.940;12.050;2023-04-03T07:52:47;98196.25;;;3.25;68.58
75008;BME280;63554;48.940;12.050;2023-04-03T07:56:50;98199.56;;;3.37;67.70
75008;BME280;63554;48.940;12.050;2023-04-03T08:00:53;98202.66;;;3.68;68.39
75008;BME280;63554;48.940;12.050;2023-04-03T08:04:57;98199.06;;;3.78;65.68
75008;BME280;63554;48.940;12.050;2023-04-03T08:09:01;98190.31;;;3.93;66.77
75008;BME280;63554;48.940;12.050;2023-04-03T08:13:06;98195.47;;;4.13;64.82
75008;BME280;63554;48.940;12.050;2023-04-03T08:17:09;98201.16;;;3.92;63.53
75008;BME280;63554;48.940;12.050;2023-04-03T08:21:14;98200.59;;;3.80;62.41
75008;BME280;63554;48.940;12.050;2023-04-03T08:25:17;98208.41;;;4.00;61.79
75008;BME280;63554;48.940;12.050;2023-04-03T08:29:20;98207.91;;;4.22;59.15
75008;BME280;63554;48.940;12.050;2023-04-03T08:33:26;98205.63;;;4.27;59.17
75008;BME280;63554;48.940;12.050;2023-04-03T08:37:30;98209.44;;;3.99;58.69
75008;BME280;63554;48.940;12.050;2023-04-03T08:41:35;98214.22;;;3.87;59.04
75008;BME280;63554;48.940;12.050;2023-04-03T08:45:44;98224.56;;;4.08;61.30
75008;BME280;63554;48.940;12.050;2023-04-03T08:49:50;98224.47;;;4.18;58.45
75008;BME280;63554;48.940;12.050;2023-04-03T08:53:59;98219.22;;;4.34;57.52
75008;BME280;63554;48.940;12.050;2023-04-03T08:58:05;98218.16;;;4.53;57.63
75008;BME280;63554;48.940;12.050;2023-04-03T09:02:23;98218.34;;;4.60;56.24
75008;BME280;63554;48.940;12.050;2023-04-03T09:06:29;98227.53;;;4.57;53.81
75008;BME280;63554;48.940;12.050;2023-04-03T09:10:37;98226.34;;;4.51;55.16
75008;BME280;63554;48.940;12.050;2023-04-03T09:14:46;98222.44;;;4.46;53.68
75008;BME280;63554;48.940;12.050;2023-04-03T09:18:57;98233.06;;;4.55;53.25
75008;BME280;63554;48.940;12.050;2023-04-03T09:23:09;98226.25;;;4.69;54.63
75008;BME280;63554;48.940;12.050;2023-04-03T09:27:18;98223.03;;;5.08;53.26
75008;BME280;63554;48.940;12.050;2023-04-03T09:31:22;98222.50;;;5.80;56.01
75008;BME280;63554;48.940;12.050;2023-04-03T09:35:27;98224.78;;;6.41;51.60
75008;BME280;63554;48.940;12.050;2023-04-03T09:39:49;98240.91;;;6.57;50.61
75008;BME280;63554;48.940;12.050;2023-04-03T09:43:54;98227.66;;;6.95;48.33
75008;BME280;63554;48.940;12.050;2023-04-03T09:48:08;98226.94;;;7.32;47.10
75008;BME280;63554;48.940;12.050;2023-04-03T09:52:19;98233.84;;;7.35;47.80
75008;BME280;63554;48.940;12.050;2023-04-03T09:56:24;98215.56;;;7.22;45.00
75008;BME280;63554;48.940;12.050;2023-04-03T10:00:33;98222.31;;;7.49;48.49
75008;BME280;63554;48.940;12.050;2023-04-03T10:04:38;98225.59;;;7.83;43.89
75008;BME280;63554;48.940;12.050;2023-04-03T10:08:41;98217.38;;;7.76;46.38
75008;BME280;63554;48.940;12.050;2023-04-03T10:12:45;98205.84;;;7.90;43.81
75008;BME280;63554;48.940;12.050;2023-04-03T10:16:53;98214.28;;;7.41;43.16
75008;BME280;63554;48.940;12.050;2023-04-03T10:21:04;98209.38;;;7.68;40.50
75008;BME280;63554;48.940;12.050;2023-04-03T10:25:17;98213.91;;;7.90;43.79
75008;BME280;63554;48.940;12.050;2023-04-03T10:29:31;98209.97;;;7.55;41.28
75008;BME280;63554;48.940;12.050;2023-04-03T10:33:48;98216.22;;;6.93;44.87
75008;BME280;63554;48.940;12.050;2023-04-03T10:38:03;98198.88;;;7.27;42.06
75008;BME280;63554;48.940;12.050;2023-04-03T10:42:12;98200.69;;;7.58;41.90
75008;BME280;63554;48.940;12.050;2023-04-03T10:46:23;98188.22;;;7.80;42.17
75008;BME280;63554;48.940;12.050;2023-04-03T10:50:39;98197.69;;;7.76;39.62
75008;BME280;63554;48.940;12.050;2023-04-03T10:54:49;98192.19;;;7.92;41.06
75008;BME280;63554;48.940;12.050;2023-04-03T10:58:56;98198.63;;;8.21;42.91
75008;BME280;63554;48.940;12.050;2023-04-03T11:03:05;98205.50;;;7.70;40.71
75008;BME280;63554;48.940;12.050;2023-04-03T11:07:12;98204.03;;;8.06;42.41
75008;BME280;63554;48.940;12.050;2023-04-03T11:11:20;98199.44;;;8.44;41.25
75008;BME280;63554;48.940;12.050;2023-04-03T11:15:27;98196.75;;;8.59;40.18
75008;BME280;63554;48.940;12.050;2023-04-03T11:19:35;98198.13;;;9.00;38.61
75008;BME280;63554;48.940;12.050;2023-04-03T11:23:41;98185.56;;;8.77;35.82
75008;BME280;63554;48.940;12.050;2023-04-03T11:27:54;98174.31;;;7.91;36.01
75008;BME280;63554;48.940;12.050;2023-04-03T11:32:09;98186.78;;;6.91;39.01
75008;BME280;63554;48.940;12.050;2023-04-03T11:36:19;98191.09;;;6.69;42.46
75008;BME280;63554;48.940;12.050;2023-04-03T11:40:34;98174.56;;;7.81;38.97
75008;BME280;63554;48.940;12.050;2023-04-03T11:44:38;98180.03;;;6.96;39.71
75008;BME280;63554;48.940;12.050;2023-04-03T11:48:44;98171.56;;;7.76;41.13
75008;BME280;63554;48.940;12.050;2023-04-03T11:53:27;98181.84;;;7.03;42.84
75008;BME280;63554;48.940;12.050;2023-04-03T11:57:46;98171.41;;;6.77;41.74
75008;BME280;63554;48.940;12.050;2023-04-03T12:01:50;98167.66;;;6.47;40.07
75008;BME280;63554;48.940;12.050;2023-04-03T12:05:54;98169.38;;;6.31;42.66
75008;BME280;63554;48.940;12.050;2023-04-03T12:09:58;98165.84;;;6.31;44.03
75008;BME280;63554;48.940;12.050;2023-04-03T12:14:04;98154.09;;;7.03;41.62
75008;BME280;63554;48.940;12.050;2023-04-03T12:23:07;98148.94;;;7.47;40.14
75008;BME280;63554;48.940;12.050;2023-04-03T12:31:48;98157.34;;;7.21;41.24
75008;BME280;63554;48.940;12.050;2023-04-03T12:36:04;98159.81;;;6.21;43.18
75008;BME280;63554;48.940;12.050;2023-04-03T12:40:16;98146.34;;;6.29;40.30
75008;BME280;63554;48.940;12.050;2023-04-03T12:44:44;98142.59;;;8.16;38.78
75008;BME280;63554;48.940;12.050;2023-04-03T12:48:53;98145.50;;;9.10;35.28
75008;BME280;63554;48.940;12.050;2023-04-03T12:52:57;98145.38;;;9.19;37.99
75008;BME280;63554;48.940;12.050;2023-04-03T12:57:11;98127.06;;;9.36;34.95
75008;BME280;63554;48.940;12.050;2023-04-03T13:01:16;98144.38;;;7.71;39.92
75008;BME280;63554;48.940;12.050;2023-04-03T13:05:22;98145.84;;;8.26;39.96
75008;BME280;63554;48.940;12.050;2023-04-03T13:09:26;98139.72;;;8.62;38.62
75008;BME280;63554;48.940;12.050;2023-04-03T13:13:29;98135.72;;;8.73;37.69
75008;BME280;63554;48.940;12.050;2023-04-03T13:17:38;98136.63;;;7.68;37.94
75008;BME280;63554;48.940;12.050;2023-04-03T13:21:43;98135.81;;;8.50;36.85
75008;BME280;63554;48.940;12.050;2023-04-03T13:25:48;98135.59;;;8.81;37.09
75008;BME280;63554;48.940;12.050;2023-04-03T13:29:53;98117.22;;;9.78;37.18
75008;BME280;63554;48.940;12.050;2023-04-03T13:34:01;98115.44;;;9.85;35.29
75008;BME280;63554;48.940;12.050;2023-04-03T13:38:22;98132.69;;;8.98;36.51
75008;BME280;63554;48.940;12.050;2023-04-03T13:42:27;98130.72;;;7.72;38.84
75008;BME280;63554;48.940;12.050;2023-04-03T13:46:31;98121.38;;;7.60;40.09
75008;BME280;63554;48.940;12.050;2023-04-03T13:50:50;98128.03;;;8.91;35.81
75008;BME280;63554;48.940;12.050;2023-04-03T13:54:58;98113.84;;;9.97;35.08
75008;BME280;63554;48.940;12.050;2023-04-03T13:59:06;98126.69;;;10.93;33.95
75008;BME280;63554;48.940;12.050;2023-04-03T14:03:25;98123.53;;;9.14;34.69
75008;BME280;63554;48.940;12.050;2023-04-03T14:07:29;98131.03;;;8.07;37.60
75008;BME280;63554;48.940;12.050;2023-04-03T14:11:34;98121.00;;;8.31;37.20
75008;BME280;63554;48.940;12.050;2023-04-03T14:15:37;98115.56;;;8.90;36.19
75008;BME280;63554;48.940;12.050;2023-04-03T14:19:40;98116.94;;;9.23;37.44
75008;BME280;63554;48.940;12.050;2023-04-03T14:23:43;98111.78;;;8.70;36.80
75008;BME280;63554;48.940;12.050;2023-04-03T14:27:50;98117.56;;;8.67;36.57
75008;BME280;63554;48.940;12.050;2023-04-03T14:31:53;98105.50;;;7.27;38.81
75008;BME280;63554;48.940;12.050;2023-04-03T14:36:17;98114.09;;;7.23;39.21
75008;BME280;63554;48.940;12.050;2023-04-03T14:40:25;98096.47;;;8.56;38.14
75008;BME280;63554;48.940;12.050;2023-04-03T14:44:30;98088.00;;;9.38;36.52
75008;BME280;63554;48.940;12.050;2023-04-03T14:48:33;98106.66;;;7.86;38.50
75008;BME280;63554;48.940;12.050;2023-04-03T14:52:40;98102.19;;;7.17;39.50
75008;BME280;63554;48.940;12.050;2023-04-03T14:56:43;98105.84;;;7.01;39.98
75008;BME280;63554;48.940;12.050;2023-04-03T15:00:51;98116.84;;;8.14;37.48
75008;BME280;63554;48.940;12.050;2023-04-03T15:04:59;98126.53;;;6.69;40.92
75008;BME280;63554;48.940;12.050;2023-04-03T15:09:05;98122.44;;;5.86;42.42
75008;BME280;63554;48.940;12.050;2023-04-03T15:13:08;98116.53;;;5.99;41.28
75008;BME280;63554;48.940;12.050;2023-04-03T15:17:17;98120.69;;;7.81;40.27
75008;BME280;63554;48.940;12.050;2023-04-03T15:21:21;98125.41;;;8.98;37.34
75008;BME280;63554;48.940;12.050;2023-04-03T15:25:25;98126.78;;;8.73;38.09
75008;BME280;63554;48.940;12.050;2023-04-03T15:29:28;98124.50;;;8.91;35.71
75008;BME280;63554;48.940;12.050;2023-04-03T15:33:34;98112.13;;;8.45;35.54
75008;BME280;63554;48.940;12.050;2023-04-03T15:37:37;98132.19;;;8.58;36.40
75008;BME280;63554;48.940;12.050;2023-04-03T15:41:40;98134.88;;;8.58;36.02
75008;BME280;63554;48.940;12.050;2023-04-03T15:45:44;98127.56;;;7.23;38.96
75008;BME280;63554;48.940;12.050;2023-04-03T15:49:48;98126.63;;;5.97;39.22
75008;BME280;63554;48.940;12.050;2023-04-03T15:53:51;98134.03;;;5.38;41.85
75008;BME280;63554;48.940;12.050;2023-04-03T15:57:54;98128.66;;;5.54;41.01
75008;BME280;63554;48.940;12.050;2023-04-03T16:01:57;98123.63;;;5.34;41.91
75008;BME280;63554;48.940;12.050;2023-04-03T16:06:03;98130.81;;;6.00;40.00
75008;BME280;63554;48.940;12.050;2023-04-03T16:10:08;98126.00;;;6.74;39.66
75008;BME280;63554;48.940;12.050;2023-04-03T16:14:11;98134.25;;;6.33;40.75
75008;BME280;63554;48.940;12.050;2023-04-03T16:18:14;98136.88;;;6.49;40.51
75008;BME280;63554;48.940;12.050;2023-04-03T16:22:18;98143.06;;;5.78;41.65
75008;BME280;63554;48.940;12.050;2023-04-03T16:26:21;98136.84;;;5.93;40.64
75008;BME280;63554;48.940;12.050;2023-04-03T16:30:23;98140.00;;;6.22;40.87
75008;BME280;63554;48.940;12.050;2023-04-03T16:34:26;98149.97;;;5.88;41.59
75008;BME280;63554;48.940;12.050;2023-04-03T16:38:33;98150.63;;;5.90;40.87
75008;BME280;63554;48.940;12.050;2023-04-03T16:42:35;98157.03;;;6.06;39.66
75008;BME280;63554;48.940;12.050;2023-04-03T16:46:38;98163.91;;;5.67;41.37
75008;BME280;63554;48.940;12.050;2023-04-03T16:50:41;98163.00;;;4.50;43.43
75008;BME280;63554;48.940;12.050;2023-04-03T16:54:45;98177.88;;;4.10;45.03
75008;BME280;63554;48.940;12.050;2023-04-03T16:58:48;98182.13;;;3.69;46.88
75008;BME280;63554;48.940;12.050;2023-04-03T17:02:52;98182.28;;;3.49;48.99
75008;BME280;63554;48.940;12.050;2023-04-03T17:06:54;98186.78;;;3.49;50.66
75008;BME280;63554;48.940;12.050;2023-04-03T17:10:59;98187.63;;;3.67;47.72
75008;BME280;63554;48.940;12.050;2023-04-03T17:15:02;98192.81;;;3.15;48.26
75008;BME280;63554;48.940;12.050;2023-04-03T17:19:06;98204.16;;;2.81;49.26
75008;BME280;63554;48.940;12.050;2023-04-03T17:23:09;98206.81;;;2.63;48.99
75008;BME280;63554;48.940;12.050;2023-04-03T17:27:13;98217.34;;;2.65;49.13
75008;BME280;63554;48.940;12.050;2023-04-03T17:31:15;98220.34;;;2.52;49.63
75008;BME280;63554;48.940;12.050;2023-04-03T17:35:19;98223.66;;;2.36;50.01
75008;BME280;63554;48.940;12.050;2023-04-03T17:39:22;98223.81;;;2.25;50.99
75008;BME280;63554;48.940;12.050;2023-04-03T17:43:27;98221.63;;;2.10;51.84
75008;BME280;63554;48.940;12.050;2023-04-03T17:47:30;98220.50;;;2.03;51.72
75008;BME280;63554;48.940;12.050;2023-04-03T17:51:32;98229.22;;;1.95;52.37
75008;BME280;63554;48.940;12.050;2023-04-03T17:55:36;98229.09;;;1.87;52.85
75008;BME280;63554;48.940;12.050;2023-04-03T17:59:40;98229.38;;;1.74;53.37
75008;BME280;63554;48.940;12.050;2023-04-03T18:03:43;98244.00;;;1.61;54.01
75008;BME280;63554;48.940;12.050;2023-04-03T18:07:47;98236.44;;;1.56;51.78
75008;BME280;63554;48.940;12.050;2023-04-03T18:11:51;98251.59;;;1.36;51.66
75008;BME280;63554;48.940;12.050;2023-04-03T18:15:56;98251.44;;;1.28;51.77
75008;BME280;63554;48.940;12.050;2023-04-03T18:20:02;98260.03;;;1.31;51.36
75008;BME280;63554;48.940;12.050;2023-04-03T18:24:07;98261.09;;;1.09;51.99
75008;BME280;63554;48.940;12.050;2023-04-03T18:28:12;98255.88;;;0.98;51.69
75008;BME280;63554;48.940;12.050;2023-04-03T18:32:21;98260.50;;;0.96;52.22
75008;BME280;63554;48.940;12.050;2023-04-03T18:36:24;98266.53;;;0.98;52.29
75008;BME280;63554;48.940;12.050;2023-04-03T18:40:30;98273.00;;;1.05;52.35
75008;BME280;63554;48.940;12.050;2023-04-03T18:44:34;98272.59;;;1.00;53.46
75008;BME280;63554;48.940;12.050;2023-04-03T18:48:46;98275.09;;;1.02;53.33
75008;BME280;63554;48.940;12.050;2023-04-03T18:52:49;98273.31;;;1.12;53.42
75008;BME280;63554;48.940;12.050;2023-04-03T18:56:51;98270.81;;;1.20;54.06
75008;BME280;63554;48.940;12.050;2023-04-03T19:00:54;98276.13;;;1.20;53.88
75008;BME280;63554;48.940;12.050;2023-04-03T19:05:04;98273.59;;;1.18;54.11
75008;BME280;63554;48.940;12.050;2023-04-03T19:09:08;98271.63;;;1.11;54.65
75008;BME280;63554;48.940;12.050;2023-04-03T19:13:11;98279.84;;;0.98;55.16
75008;BME280;63554;48.940;12.050;2023-04-03T19:17:24;98277.34;;;0.96;54.91
75008;BME280;63554;48.940;12.050;2023-04-03T19:21:32;98278.44;;;0.94;55.06
75008;BME280;63554;48.940;12.050;2023-04-03T19:25:40;98269.72;;;0.82;55.99
75008;BME280;63554;48.940;12.050;2023-04-03T19:29:43;98268.28;;;0.78;55.88
75008;BME280;63554;48.940;12.050;2023-04-03T19:33:46;98273.47;;;0.70;56.12
75008;BME280;63554;48.940;12.050;2023-04-03T19:37:50;98277.38;;;0.66;56.41
75008;BME280;63554;48.940;12.050;2023-04-03T19:41:53;98281.44;;;0.70;57.23
75008;BME280;63554;48.940;12.050;2023-04-03T19:45:56;98274.84;;;0.64;57.21
75008;BME280;63554;48.940;12.050;2023-04-03T19:49:59;98269.50;;;0.64;57.24
75008;BME280;63554;48.940;12.050;2023-04-03T19:54:04;98268.50;;;0.55;56.57
75008;BME280;63554;48.940;12.050;2023-04-03T19:58:07;98270.72;;;0.50;56.71
75008;BME280;63554;48.940;12.050;2023-04-03T20:02:09;98269.88;;;0.50;57.04
75008;BME280;63554;48.940;12.050;2023-04-03T20:06:13;98271.72;;;0.49;56.88
75008;BME280;63554;48.940;12.050;2023-04-03T20:10:17;98272.03;;;0.35;57.20
75008;BME280;63554;48.940;12.050;2023-04-03T20:14:20;98279.31;;;0.33;58.25
75008;BME280;63554;48.940;12.050;2023-04-03T20:18:23;98286.72;;;0.29;59.34
75008;BME280;63554;48.940;12.050;2023-04-03T20:22:27;98287.91;;;0.15;59.66
75008;BME280;63554;48.940;12.050;2023-04-03T20:26:32;98279.41;;;0.01;60.43
75008;BME280;63554;48.940;12.050;2023-04-03T20:30:45;98279.53;;;-0.01;60.66
75008;BME280;63554;48.940;12.050;2023-04-03T20:34:49;98282.13;;;-0.11;61.16
75008;BME280;63554;48.940;12.050;2023-04-03T20:39:04;98289.34;;;-0.02;61.71
75008;BME280;63554;48.940;12.050;2023-04-03T20:43:09;98275.34;;;-0.04;61.87
75008;BME280;63554;48.940;12.050;2023-04-03T20:47:12;98283.44;;;-0.05;62.11
75008;BME280;63554;48.940;12.050;2023-04-03T20:51:17;98278.53;;;-0.10;62.96
75008;BME280;63554;48.940;12.050;2023-04-03T20:55:20;98278.75;;;-0.13;63.31
75008;BME280;63554;48.940;12.050;2023-04-03T20:59:25;98274.41;;;-0.14;63.42
75008;BME280;63554;48.940;12.050;2023-04-03T21:03:28;98281.53;;;-0.14;64.35
75008;BME280;63554;48.940;12.050;2023-04-03T21:20:56;98281.53;;;-0.35;64.78
75008;BME280;63554;48.940;12.050;2023-04-03T21:24:59;98271.28;;;-0.40;65.25
75008;BME280;63554;48.940;12.050;2023-04-03T21:29:02;98277.94;;;-0.46;65.20
75008;BME280;63554;48.940;12.050;2023-04-03T21:33:04;98272.91;;;-0.49;65.46
75008;BME280;63554;48.940;12.050;2023-04-03T21:37:11;98273.84;;;-0.50;65.61
75008;BME280;63554;48.940;12.050;2023-04-03T21:41:14;98274.69;;;-0.49;66.35
75008;BME280;63554;48.940;12.050;2023-04-03T21:45:17;98271.31;;;-0.51;66.36
75008;BME280;63554;48.940;12.050;2023-04-03T21:49:23;98271.78;;;-0.46;66.25
75008;BME280;63554;48.940;12.050;2023-04-03T21:53:32;98272.97;;;-0.39;66.80
75008;BME280;63554;48.940;12.050;2023-04-03T21:57:51;98278.28;;;-0.39;66.80
75008;BME280;63554;48.940;12.050;2023-04-03T22:02:06;98269.34;;;-0.38;65.61